sensor_id;sensor_type;location;lat;lon;timestamp;P1;durP1;ratioP1;P2;durP2;ratioP2
21822;SDS011;11074;48.596;9.238;2023-01-05T00:01:03;0.57;;;0.40;;
21822;SDS011;11074;48.596;9.238;2023-01-05T00:03:32;2.33;;;0.40;;
21822;SDS011;11074;48.596;9.238;2023-01-05T00:06:03;0.57;;;0.40;;
21822;SDS011;11074;48.596;9.238;2023-01-05T00:08:32;0.55;;;0.40;;
21822;SDS011;11074;48.596;9.238;2023-01-05T00:11:02;0.85;;;0.35;;
21822;SDS011;11074;48.596;9.238;2023-01-05T00:14:01;3.97;;;1.10;;
21822;SDS011;11074;48.596;9.238;2023-01-05T00:16:46;1.92;;;0.75;;
21822;SDS011;11074;48.596;9.238;2023-01-05T00:19:31;1.30;;;0.60;;
21822;SDS011;11074;48.596;9.238;2023-01-05T00:22:20;0.28;;;0.25;;
21822;SDS011;11074;48.596;9.238;2023-01-05T00:27:38;0.10;;;0.10;;
21822;SDS011;11074;48.596;9.238;2023-01-05T00:30:06;0.63;;;0.30;;
21822;SDS011;11074;48.596;9.238;2023-01-05T00:32:34;0.40;;;0.20;;
21822;SDS011;11074;48.596;9.238;2023-01-05T00:35:00;0.88;;;0.20;;
21822;SDS011;11074;48.596;9.238;2023-01-05T00:37:27;0.32;;;0.25;;
21822;SDS011;11074;48.596;9.238;2023-01-05T00:39:56;0.75;;;0.10;;
21822;SDS011;11074;48.596;9.238;2023-01-05T00:42:22;0.52;;;0.22;;
21822;SDS011;11074;48.596;9.238;2023-01-05T00:44:48;0.10;;;0.10;;
21822;SDS011;11074;48.596;9.238;2023-01-05T00:47:13;0.28;;;0.20;;
21822;SDS011;11074;48.596;9.238;2023-01-05T00:49:39;0.20;;;0.20;;
21822;SDS011;11074;48.596;9.238;2023-01-05T00:52:05;0.30;;;0.20;;
21822;SDS011;11074;48.596;9.238;2023-01-05T00:54:31;1.00;;;0.20;;
21822;SDS011;11074;48.596;9.238;2023-01-05T00:56:57;0.55;;;0.20;;
21822;SDS011;11074;48.596;9.238;2023-01-05T00:59:23;0.50;;;0.20;;
21822;SDS011;11074;48.596;9.238;2023-01-05T01:01:49;0.45;;;0.20;;
21822;SDS011;11074;48.596;9.238;2023-01-05T01:04:17;0.20;;;0.20;;
21822;SDS011;11074;48.596;9.238;2023-01-05T01:06:43;0.35;;;0.13;;
21822;SDS011;11074;48.596;9.238;2023-01-05T01:09:10;0.20;;;0.20;;
21822;SDS011;11074;48.596;9.238;2023-01-05T01:11:36;0.75;;;0.20;;
21822;SDS011;11074;48.596;9.238;2023-01-05T01:14:03;1.75;;;0.20;;
21822;SDS011;11074;48.596;9.238;2023-01-05T01:16:34;0.20;;;0.20;;
21822;SDS011;11074;48.596;9.238;2023-01-05T01:19:00;0.65;;;0.10;;
21822;SDS011;11074;48.596;9.238;2023-01-05T01:21:26;0.20;;;0.10;;
21822;SDS011;11074;48.596;9.238;2023-01-05T01:23:52;0.20;;;0.10;;
21822;SDS011;11074;48.596;9.238;2023-01-05T01:26:18;0.28;;;0.20;;
21822;SDS011;11074;48.596;9.238;2023-01-05T01:28:45;0.55;;;0.20;;
21822;SDS011;11074;48.596;9.238;2023-01-05T01:31:12;0.40;;;0.20;;
21822;SDS011;11074;48.596;9.238;2023-01-05T01:33:38;1.25;;;0.28;;
21822;SDS011;11074;48.596;9.238;2023-01-05T01:36:04;0.35;;;0.10;;
21822;SDS011;11074;48.596;9.238;2023-01-05T01:38:32;0.50;;;0.20;;
21822;SDS011;11074;48.596;9.238;2023-01-05T01:40:58;0.30;;;0.13;;
21822;SDS011;11074;48.596;9.238;2023-01-05T01:46:11;1.67;;;0.40;;
21822;SDS011;11074;48.596;9.238;2023-01-05T01:48:40;1.40;;;0.20;;
21822;SDS011;11074;48.596;9.238;2023-01-05T01:51:22;1.17;;;0.25;;
21822;SDS011;11074;48.596;9.238;2023-01-05T01:54:09;0.45;;;0.20;;
21822;SDS011;11074;48.596;9.238;2023-01-05T01:56:47;0.28;;;0.10;;
21822;SDS011;11074;48.596;9.238;2023-01-05T01:59:19;0.40;;;0.22;;
21822;SDS011;11074;48.596;9.238;2023-01-05T02:01:48;0.73;;;0.17;;
21822;SDS011;11074;48.596;9.238;2023-01-05T02:04:18;1.17;;;0.20;;
21822;SDS011;11074;48.596;9.238;2023-01-05T02:06:45;0.10;;;0.10;;
21822;SDS011;11074;48.596;9.238;2023-01-05T02:09:10;1.25;;;0.30;;
21822;SDS011;11074;48.596;9.238;2023-01-05T02:11:43;0.30;;;0.15;;
21822;SDS011;11074;48.596;9.238;2023-01-05T02:14:27;0.45;;;0.20;;
21822;SDS011;11074;48.596;9.238;2023-01-05T02:33:59;0.00;;;0.00;;
21822;SDS011;11074;48.596;9.238;2023-01-05T02:36:44;0.90;;;0.20;;
21822;SDS011;11074;48.596;9.238;2023-01-05T02:42:00;0.40;;;0.10;;
21822;SDS011;11074;48.596;9.238;2023-01-05T02:44:46;0.13;;;0.10;;
21822;SDS011;11074;48.596;9.238;2023-01-05T02:49:50;0.45;;;0.20;;
21822;SDS011;11074;48.596;9.238;2023-01-05T02:52:19;0.13;;;0.10;;
21822;SDS011;11074;48.596;9.238;2023-01-05T02:54:47;0.65;;;0.10;;
21822;SDS011;11074;48.596;9.238;2023-01-05T02:57:31;1.02;;;0.20;;
21822;SDS011;11074;48.596;9.238;2023-01-05T03:00:19;0.38;;;0.20;;
21822;SDS011;11074;48.596;9.238;2023-01-05T03:03:15;0.10;;;0.10;;
21822;SDS011;11074;48.596;9.238;2023-01-05T03:05:55;0.10;;;0.10;;
21822;SDS011;11074;48.596;9.238;2023-01-05T03:08:38;0.10;;;0.10;;
21822;SDS011;11074;48.596;9.238;2023-01-05T03:11:19;0.10;;;0.10;;
21822;SDS011;11074;48.596;9.238;2023-01-05T03:14:09;0.10;;;0.10;;
21822;SDS011;11074;48.596;9.238;2023-01-05T03:16:45;1.10;;;0.20;;
21822;SDS011;11074;48.596;9.238;2023-01-05T03:19:15;0.03;;;0.00;;
21822;SDS011;11074;48.596;9.238;2023-01-05T03:22:04;0.88;;;0.17;;
21822;SDS011;11074;48.596;9.238;2023-01-05T03:25:14;0.60;;;0.10;;
21822;SDS011;11074;48.596;9.238;2023-01-05T03:28:02;0.10;;;0.10;;
21822;SDS011;11074;48.596;9.238;2023-01-05T03:36:45;1.15;;;0.20;;
21822;SDS011;11074;48.596;9.238;2023-01-05T03:39:16;0.10;;;0.10;;
21822;SDS011;11074;48.596;9.238;2023-01-05T03:41:50;0.20;;;0.10;;
21822;SDS011;11074;48.596;9.238;2023-01-05T03:44:18;0.20;;;0.15;;
21822;SDS011;11074;48.596;9.238;2023-01-05T03:46:44;0.22;;;0.13;;
21822;SDS011;11074;48.596;9.238;2023-01-05T03:49:10;0.20;;;0.10;;
21822;SDS011;11074;48.596;9.238;2023-01-05T03:51:36;0.00;;;0.00;;
21822;SDS011;11074;48.596;9.238;2023-01-05T03:54:02;0.00;;;0.00;;
21822;SDS011;11074;48.596;9.238;2023-01-05T03:56:28;0.10;;;0.10;;
21822;SDS011;11074;48.596;9.238;2023-01-05T03:58:53;0.00;;;0.00;;
21822;SDS011;11074;48.596;9.238;2023-01-05T04:01:19;0.50;;;0.13;;
21822;SDS011;11074;48.596;9.238;2023-01-05T04:03:45;0.30;;;0.20;;
21822;SDS011;11074;48.596;9.238;2023-01-05T04:06:10;0.35;;;0.20;;
21822;SDS011;11074;48.596;9.238;2023-01-05T04:08:36;1.02;;;0.20;;
21822;SDS011;11074;48.596;9.238;2023-01-05T04:11:15;0.10;;;0.10;;
21822;SDS011;11074;48.596;9.238;2023-01-05T04:13:44;1.08;;;0.00;;
21822;SDS011;11074;48.596;9.238;2023-01-05T04:16:10;0.20;;;0.20;;
21822;SDS011;11074;48.596;9.238;2023-01-05T04:18:36;0.10;;;0.10;;
21822;SDS011;11074;48.596;9.238;2023-01-05T04:21:02;0.10;;;0.10;;
21822;SDS011;11074;48.596;9.238;2023-01-05T04:23:29;1.20;;;0.20;;
21822;SDS011;11074;48.596;9.238;2023-01-05T04:25:55;1.70;;;0.10;;
21822;SDS011;11074;48.596;9.238;2023-01-05T04:28:20;0.10;;;0.10;;
21822;SDS011;11074;48.596;9.238;2023-01-05T04:30:49;0.52;;;0.10;;
21822;SDS011;11074;48.596;9.238;2023-01-05T04:33:18;0.22;;;0.10;;
21822;SDS011;11074;48.596;9.238;2023-01-05T04:35:45;0.20;;;0.20;;
21822;SDS011;11074;48.596;9.238;2023-01-05T04:38:12;0.65;;;0.20;;
21822;SDS011;11074;48.596;9.238;2023-01-05T04:40:38;0.30;;;0.10;;
21822;SDS011;11074;48.596;9.238;2023-01-05T04:43:04;0.10;;;0.10;;
21822;SDS011;11074;48.596;9.238;2023-01-05T04:45:30;0.47;;;0.20;;
21822;SDS011;11074;48.596;9.238;2023-01-05T04:47:56;0.52;;;0.20;;
21822;SDS011;11074;48.596;9.238;2023-01-05T04:50:22;0.30;;;0.20;;
21822;SDS011;11074;48.596;9.238;2023-01-05T04:52:48;1.10;;;0.15;;
21822;SDS011;11074;48.596;9.238;2023-01-05T04:55:14;0.73;;;0.20;;
21822;SDS011;11074;48.596;9.238;2023-01-05T04:57:40;0.30;;;0.10;;
21822;SDS011;11074;48.596;9.238;2023-01-05T05:00:06;0.28;;;0.10;;
21822;SDS011;11074;48.596;9.238;2023-01-05T05:02:33;0.10;;;0.10;;
21822;SDS011;11074;48.596;9.238;2023-01-05T05:04:59;0.10;;;0.10;;
21822;SDS011;11074;48.596;9.238;2023-01-05T05:07:25;0.30;;;0.20;;
21822;SDS011;11074;48.596;9.238;2023-01-05T05:09:50;0.10;;;0.10;;
21822;SDS011;11074;48.596;9.238;2023-01-05T05:12:16;0.45;;;0.20;;
21822;SDS011;11074;48.596;9.238;2023-01-05T05:14:47;0.60;;;0.20;;
21822;SDS011;11074;48.596;9.238;2023-01-05T05:17:14;0.60;;;0.20;;
21822;SDS011;11074;48.596;9.238;2023-01-05T05:19:41;0.80;;;0.10;;
21822;SDS011;11074;48.596;9.238;2023-01-05T05:22:07;1.85;;;0.13;;
21822;SDS011;11074;48.596;9.238;2023-01-05T05:24:33;0.20;;;0.10;;
21822;SDS011;11074;48.596;9.238;2023-01-05T05:26:59;3.35;;;0.10;;
21822;SDS011;11074;48.596;9.238;2023-01-05T05:29:24;0.10;;;0.10;;
21822;SDS011;11074;48.596;9.238;2023-01-05T05:31:50;0.25;;;0.13;;
21822;SDS011;11074;48.596;9.238;2023-01-05T05:34:17;0.17;;;0.10;;
21822;SDS011;11074;48.596;9.238;2023-01-05T05:36:43;0.10;;;0.10;;
21822;SDS011;11074;48.596;9.238;2023-01-05T05:39:12;0.10;;;0.10;;
21822;SDS011;11074;48.596;9.238;2023-01-05T05:41:39;0.10;;;0.10;;
21822;SDS011;11074;48.596;9.238;2023-01-05T05:44:06;0.15;;;0.10;;
21822;SDS011;11074;48.596;9.238;2023-01-05T05:46:33;0.17;;;0.10;;
21822;SDS011;11074;48.596;9.238;2023-01-05T05:48:59;0.20;;;0.20;;
21822;SDS011;11074;48.596;9.238;2023-01-05T05:51:25;1.10;;;0.52;;
21822;SDS011;11074;48.596;9.238;2023-01-05T05:53:51;1.05;;;0.50;;
21822;SDS011;11074;48.596;9.238;2023-01-05T05:56:17;0.30;;;0.20;;
21822;SDS011;11074;48.596;9.238;2023-01-05T05:58:43;0.40;;;0.20;;
21822;SDS011;11074;48.596;9.238;2023-01-05T06:01:09;0.30;;;0.20;;
21822;SDS011;11074;48.596;9.238;2023-01-05T06:03:35;0.47;;;0.20;;
21822;SDS011;11074;48.596;9.238;2023-01-05T06:06:02;0.80;;;0.20;;
21822;SDS011;11074;48.596;9.238;2023-01-05T06:08:28;1.52;;;0.32;;
21822;SDS011;11074;48.596;9.238;2023-01-05T06:10:54;0.38;;;0.22;;
21822;SDS011;11074;48.596;9.238;2023-01-05T06:13:21;0.30;;;0.20;;
21822;SDS011;11074;48.596;9.238;2023-01-05T06:15:48;2.83;;;1.27;;
21822;SDS011;11074;48.596;9.238;2023-01-05T06:18:14;5.07;;;2.63;;
21822;SDS011;11074;48.596;9.238;2023-01-05T06:20:40;11.82;;;6.05;;
21822;SDS011;11074;48.596;9.238;2023-01-05T06:23:06;5.78;;;2.70;;
21822;SDS011;11074;48.596;9.238;2023-01-05T06:25:33;2.70;;;1.40;;
21822;SDS011;11074;48.596;9.238;2023-01-05T06:28:00;2.22;;;0.70;;
21822;SDS011;11074;48.596;9.238;2023-01-05T06:30:26;0.47;;;0.40;;
21822;SDS011;11074;48.596;9.238;2023-01-05T06:32:53;1.10;;;0.30;;
21822;SDS011;11074;48.596;9.238;2023-01-05T06:35:19;0.40;;;0.28;;
21822;SDS011;11074;48.596;9.238;2023-01-05T06:37:45;0.40;;;0.40;;
21822;SDS011;11074;48.596;9.238;2023-01-05T06:40:11;0.65;;;0.22;;
21822;SDS011;11074;48.596;9.238;2023-01-05T06:42:37;0.20;;;0.20;;
21822;SDS011;11074;48.596;9.238;2023-01-05T06:45:04;0.90;;;0.55;;
21822;SDS011;11074;48.596;9.238;2023-01-05T06:47:31;0.80;;;0.45;;
21822;SDS011;11074;48.596;9.238;2023-01-05T06:49:57;1.23;;;0.73;;
21822;SDS011;11074;48.596;9.238;2023-01-05T06:52:23;1.38;;;0.70;;
21822;SDS011;11074;48.596;9.238;2023-01-05T06:54:49;0.80;;;0.70;;
21822;SDS011;11074;48.596;9.238;2023-01-05T06:57:14;1.60;;;0.90;;
21822;SDS011;11074;48.596;9.238;2023-01-05T06:59:40;1.20;;;0.88;;
21822;SDS011;11074;48.596;9.238;2023-01-05T07:02:13;2.08;;;1.20;;
21822;SDS011;11074;48.596;9.238;2023-01-05T07:04:41;3.10;;;1.38;;
21822;SDS011;11074;48.596;9.238;2023-01-05T07:07:10;2.20;;;1.40;;
21822;SDS011;11074;48.596;9.238;2023-01-05T07:09:40;2.50;;;1.48;;
21822;SDS011;11074;48.596;9.238;2023-01-05T07:12:06;1.27;;;0.90;;
21822;SDS011;11074;48.596;9.238;2023-01-05T07:14:32;2.28;;;1.27;;
21822;SDS011;11074;48.596;9.238;2023-01-05T07:16:58;1.50;;;0.80;;
21822;SDS011;11074;48.596;9.238;2023-01-05T07:19:24;1.92;;;1.00;;
21822;SDS011;11074;48.596;9.238;2023-01-05T07:21:50;1.60;;;0.80;;
21822;SDS011;11074;48.596;9.238;2023-01-05T07:24:16;2.67;;;1.77;;
21822;SDS011;11074;48.596;9.238;2023-01-05T07:26:42;1.80;;;1.15;;
21822;SDS011;11074;48.596;9.238;2023-01-05T07:29:07;1.02;;;0.60;;
21822;SDS011;11074;48.596;9.238;2023-01-05T07:31:33;1.30;;;0.60;;
21822;SDS011;11074;48.596;9.238;2023-01-05T07:33:59;0.50;;;0.45;;
21822;SDS011;11074;48.596;9.238;2023-01-05T07:36:24;1.45;;;0.50;;
21822;SDS011;11074;48.596;9.238;2023-01-05T07:38:50;1.60;;;0.80;;
21822;SDS011;11074;48.596;9.238;2023-01-05T07:41:17;4.07;;;2.75;;
21822;SDS011;11074;48.596;9.238;2023-01-05T07:43:43;6.05;;;4.20;;
21822;SDS011;11074;48.596;9.238;2023-01-05T07:46:12;26.48;;;12.88;;
21822;SDS011;11074;48.596;9.238;2023-01-05T07:48:39;20.02;;;9.93;;
21822;SDS011;11074;48.596;9.238;2023-01-05T07:51:06;29.60;;;17.83;;
21822;SDS011;11074;48.596;9.238;2023-01-05T07:53:32;17.58;;;11.55;;
21822;SDS011;11074;48.596;9.238;2023-01-05T07:56:02;12.50;;;9.18;;
21822;SDS011;11074;48.596;9.238;2023-01-05T07:58:29;9.15;;;5.78;;
21822;SDS011;11074;48.596;9.238;2023-01-05T08:01:01;5.35;;;3.40;;
21822;SDS011;11074;48.596;9.238;2023-01-05T08:03:29;5.40;;;4.00;;
21822;SDS011;11074;48.596;9.238;2023-01-05T08:05:54;8.05;;;6.50;;
21822;SDS011;11074;48.596;9.238;2023-01-05T08:08:20;7.03;;;5.05;;
21822;SDS011;11074;48.596;9.238;2023-01-05T08:10:45;6.18;;;5.03;;
21822;SDS011;11074;48.596;9.238;2023-01-05T08:13:11;6.55;;;3.63;;
21822;SDS011;11074;48.596;9.238;2023-01-05T08:18:22;6.65;;;5.72;;
21822;SDS011;11074;48.596;9.238;2023-01-05T08:20:49;4.50;;;3.60;;
21822;SDS011;11074;48.596;9.238;2023-01-05T08:23:19;6.88;;;2.30;;
21822;SDS011;11074;48.596;9.238;2023-01-05T08:25:46;3.50;;;2.58;;
21822;SDS011;11074;48.596;9.238;2023-01-05T08:28:11;3.83;;;2.92;;
21822;SDS011;11074;48.596;9.238;2023-01-05T08:30:37;4.10;;;2.30;;
21822;SDS011;11074;48.596;9.238;2023-01-05T08:33:03;3.15;;;1.80;;
21822;SDS011;11074;48.596;9.238;2023-01-05T08:35:29;1.85;;;1.20;;
21822;SDS011;11074;48.596;9.238;2023-01-05T08:37:55;1.70;;;1.00;;
21822;SDS011;11074;48.596;9.238;2023-01-05T08:40:21;1.40;;;0.90;;
21822;SDS011;11074;48.596;9.238;2023-01-05T08:42:46;2.15;;;1.00;;
21822;SDS011;11074;48.596;9.238;2023-01-05T08:45:15;1.13;;;0.93;;
21822;SDS011;11074;48.596;9.238;2023-01-05T08:47:42;1.58;;;0.80;;
21822;SDS011;11074;48.596;9.238;2023-01-05T08:50:08;1.85;;;1.00;;
21822;SDS011;11074;48.596;9.238;2023-01-05T08:52:38;1.90;;;0.93;;
21822;SDS011;11074;48.596;9.238;2023-01-05T08:55:05;2.00;;;1.02;;
21822;SDS011;11074;48.596;9.238;2023-01-05T08:57:34;8.43;;;4.63;;
21822;SDS011;11074;48.596;9.238;2023-01-05T09:00:00;9.63;;;5.82;;
21822;SDS011;11074;48.596;9.238;2023-01-05T09:02:26;12.52;;;7.53;;
21822;SDS011;11074;48.596;9.238;2023-01-05T09:04:52;11.68;;;6.80;;
21822;SDS011;11074;48.596;9.238;2023-01-05T09:07:18;9.50;;;5.28;;
21822;SDS011;11074;48.596;9.238;2023-01-05T09:09:44;8.88;;;6.15;;
21822;SDS011;11074;48.596;9.238;2023-01-05T09:12:10;7.35;;;4.20;;
21822;SDS011;11074;48.596;9.238;2023-01-05T09:14:35;6.20;;;3.85;;
21822;SDS011;11074;48.596;9.238;2023-01-05T09:17:02;4.15;;;2.90;;
21822;SDS011;11074;48.596;9.238;2023-01-05T09:19:28;4.45;;;3.00;;
21822;SDS011;11074;48.596;9.238;2023-01-05T09:21:53;4.40;;;2.40;;
21822;SDS011;11074;48.596;9.238;2023-01-05T09:24:20;5.30;;;2.17;;
21822;SDS011;11074;48.596;9.238;2023-01-05T09:26:46;4.63;;;1.40;;
21822;SDS011;11074;48.596;9.238;2023-01-05T09:29:12;3.70;;;1.40;;
21822;SDS011;11074;48.596;9.238;2023-01-05T09:31:41;4.93;;;1.65;;
21822;SDS011;11074;48.596;9.238;2023-01-05T09:34:08;3.42;;;1.55;;
21822;SDS011;11074;48.596;9.238;2023-01-05T09:36:35;5.07;;;1.45;;
21822;SDS011;11074;48.596;9.238;2023-01-05T09:39:02;4.10;;;1.75;;
21822;SDS011;11074;48.596;9.238;2023-01-05T09:44:30;5.38;;;1.40;;
21822;SDS011;11074;48.596;9.238;2023-01-05T09:47:15;5.22;;;1.70;;
21822;SDS011;11074;48.596;9.238;2023-01-05T09:49:49;4.38;;;1.27;;
21822;SDS011;11074;48.596;9.238;2023-01-05T09:52:17;6.15;;;1.70;;
21822;SDS011;11074;48.596;9.238;2023-01-05T09:54:46;5.72;;;1.70;;
21822;SDS011;11074;48.596;9.238;2023-01-05T09:57:18;6.90;;;1.38;;
21822;SDS011;11074;48.596;9.238;2023-01-05T09:59:51;5.10;;;1.60;;
21822;SDS011;11074;48.596;9.238;2023-01-05T10:05:23;6.65;;;1.10;;
21822;SDS011;11074;48.596;9.238;2023-01-05T10:07:53;5.38;;;1.52;;
21822;SDS011;11074;48.596;9.238;2023-01-05T10:13:09;8.43;;;1.60;;
21822;SDS011;11074;48.596;9.238;2023-01-05T10:15:53;10.65;;;1.55;;
21822;SDS011;11074;48.596;9.238;2023-01-05T10:18:20;7.22;;;1.67;;
21822;SDS011;11074;48.596;9.238;2023-01-05T10:26:31;5.68;;;1.38;;
21822;SDS011;11074;48.596;9.238;2023-01-05T10:29:12;7.18;;;1.70;;
21822;SDS011;11074;48.596;9.238;2023-01-05T10:31:49;4.53;;;1.25;;
21822;SDS011;11074;48.596;9.238;2023-01-05T10:34:59;7.03;;;1.30;;
21822;SDS011;11074;48.596;9.238;2023-01-05T10:41:09;5.65;;;1.10;;
21822;SDS011;11074;48.596;9.238;2023-01-05T10:46:57;8.43;;;1.42;;
21822;SDS011;11074;48.596;9.238;2023-01-05T10:49:24;8.00;;;1.50;;
21822;SDS011;11074;48.596;9.238;2023-01-05T10:51:54;5.30;;;1.40;;
21822;SDS011;11074;48.596;9.238;2023-01-05T10:54:38;7.60;;;1.60;;
21822;SDS011;11074;48.596;9.238;2023-01-05T10:59:53;6.72;;;1.42;;
21822;SDS011;11074;48.596;9.238;2023-01-05T11:02:27;8.03;;;1.70;;
21822;SDS011;11074;48.596;9.238;2023-01-05T11:05:04;10.45;;;2.25;;
21822;SDS011;11074;48.596;9.238;2023-01-05T11:07:45;8.32;;;1.70;;
21822;SDS011;11074;48.596;9.238;2023-01-05T11:10:25;6.20;;;1.58;;
21822;SDS011;11074;48.596;9.238;2023-01-05T11:15:40;7.95;;;1.73;;
21822;SDS011;11074;48.596;9.238;2023-01-05T11:18:53;9.27;;;2.50;;
21822;SDS011;11074;48.596;9.238;2023-01-05T11:21:28;8.35;;;1.92;;
21822;SDS011;11074;48.596;9.238;2023-01-05T11:24:25;7.90;;;2.13;;
21822;SDS011;11074;48.596;9.238;2023-01-05T11:27:01;8.77;;;2.10;;
21822;SDS011;11074;48.596;9.238;2023-01-05T11:30:21;8.43;;;1.83;;
21822;SDS011;11074;48.596;9.238;2023-01-05T11:32:43;10.48;;;2.35;;
21822;SDS011;11074;48.596;9.238;2023-01-05T11:35:23;9.02;;;1.52;;
21822;SDS011;11074;48.596;9.238;2023-01-05T11:37:56;6.15;;;1.73;;
21822;SDS011;11074;48.596;9.238;2023-01-05T11:40:22;7.65;;;1.40;;
21822;SDS011;11074;48.596;9.238;2023-01-05T11:42:55;9.60;;;1.40;;
21822;SDS011;11074;48.596;9.238;2023-01-05T11:45:23;8.35;;;1.60;;
21822;SDS011;11074;48.596;9.238;2023-01-05T11:48:00;7.47;;;1.48;;
21822;SDS011;11074;48.596;9.238;2023-01-05T11:50:44;7.85;;;1.73;;
21822;SDS011;11074;48.596;9.238;2023-01-05T11:58:47;9.38;;;1.95;;
21822;SDS011;11074;48.596;9.238;2023-01-05T12:04:28;8.63;;;2.05;;
21822;SDS011;11074;48.596;9.238;2023-01-05T12:09:50;10.43;;;2.50;;
21822;SDS011;11074;48.596;9.238;2023-01-05T12:12:38;12.50;;;2.25;;
21822;SDS011;11074;48.596;9.238;2023-01-05T12:21:36;8.55;;;1.90;;
21822;SDS011;11074;48.596;9.238;2023-01-05T12:49:41;10.75;;;1.95;;
21822;SDS011;11074;48.596;9.238;2023-01-05T12:52:24;7.80;;;1.83;;
21822;SDS011;11074;48.596;9.238;2023-01-05T12:58:10;8.55;;;1.80;;
21822;SDS011;11074;48.596;9.238;2023-01-05T13:00:46;8.48;;;1.88;;
21822;SDS011;11074;48.596;9.238;2023-01-05T13:03:25;10.93;;;2.33;;
21822;SDS011;11074;48.596;9.238;2023-01-05T13:06:11;7.95;;;1.88;;
21822;SDS011;11074;48.596;9.238;2023-01-05T13:08:54;6.57;;;2.05;;
21822;SDS011;11074;48.596;9.238;2023-01-05T13:12:06;7.47;;;1.80;;
21822;SDS011;11074;48.596;9.238;2023-01-05T13:14:26;9.10;;;1.83;;
21822;SDS011;11074;48.596;9.238;2023-01-05T13:17:13;9.02;;;1.88;;
21822;SDS011;11074;48.596;9.238;2023-01-05T13:20:01;9.55;;;2.00;;
21822;SDS011;11074;48.596;9.238;2023-01-05T13:23:26;8.98;;;2.67;;
21822;SDS011;11074;48.596;9.238;2023-01-05T13:28:39;12.00;;;2.60;;
21822;SDS011;11074;48.596;9.238;2023-01-05T13:42:51;10.98;;;3.30;;
21822;SDS011;11074;48.596;9.238;2023-01-05T13:45:57;10.02;;;3.40;;
21822;SDS011;11074;48.596;9.238;2023-01-05T13:49:03;6.78;;;2.28;;
21822;SDS011;11074;48.596;9.238;2023-01-05T13:52:03;9.00;;;2.40;;
21822;SDS011;11074;48.596;9.238;2023-01-05T13:54:45;7.32;;;2.80;;
21822;SDS011;11074;48.596;9.238;2023-01-05T13:57:19;9.52;;;2.60;;
21822;SDS011;11074;48.596;9.238;2023-01-05T13:59:56;9.88;;;2.22;;
21822;SDS011;11074;48.596;9.238;2023-01-05T14:02:32;19.88;;;2.88;;
21822;SDS011;11074;48.596;9.238;2023-01-05T14:05:12;12.13;;;2.60;;
21822;SDS011;11074;48.596;9.238;2023-01-05T14:07:39;11.25;;;2.90;;
21822;SDS011;11074;48.596;9.238;2023-01-05T14:10:15;17.45;;;4.40;;
21822;SDS011;11074;48.596;9.238;2023-01-05T14:12:48;20.77;;;4.03;;
21822;SDS011;11074;48.596;9.238;2023-01-05T14:18:02;20.25;;;4.03;;
21822;SDS011;11074;48.596;9.238;2023-01-05T14:20:47;11.63;;;2.75;;
21822;SDS011;11074;48.596;9.238;2023-01-05T14:26:05;9.23;;;2.30;;
21822;SDS011;11074;48.596;9.238;2023-01-05T14:33:44;9.90;;;2.75;;
21822;SDS011;11074;48.596;9.238;2023-01-05T14:39:06;9.55;;;2.90;;
21822;SDS011;11074;48.596;9.238;2023-01-05T14:41:41;11.07;;;3.15;;
21822;SDS011;11074;48.596;9.238;2023-01-05T14:44:20;7.90;;;2.85;;
21822;SDS011;11074;48.596;9.238;2023-01-05T14:46:54;9.65;;;2.55;;
21822;SDS011;11074;48.596;9.238;2023-01-05T14:49:24;8.93;;;3.08;;
21822;SDS011;11074;48.596;9.238;2023-01-05T14:52:01;7.60;;;3.05;;
21822;SDS011;11074;48.596;9.238;2023-01-05T14:54:34;7.30;;;2.53;;
21822;SDS011;11074;48.596;9.238;2023-01-05T15:02:36;10.13;;;2.80;;
21822;SDS011;11074;48.596;9.238;2023-01-05T15:05:15;7.72;;;2.38;;
21822;SDS011;11074;48.596;9.238;2023-01-05T15:07:58;7.82;;;2.40;;
21822;SDS011;11074;48.596;9.238;2023-01-05T15:14:27;8.38;;;2.20;;
21822;SDS011;11074;48.596;9.238;2023-01-05T15:23:54;8.98;;;2.85;;
21822;SDS011;11074;48.596;9.238;2023-01-05T15:32:49;7.75;;;2.65;;
21822;SDS011;11074;48.596;9.238;2023-01-05T15:35:34;8.50;;;3.03;;
21822;SDS011;11074;48.596;9.238;2023-01-05T15:38:17;10.32;;;2.78;;
21822;SDS011;11074;48.596;9.238;2023-01-05T15:40:50;10.57;;;3.22;;
21822;SDS011;11074;48.596;9.238;2023-01-05T15:43:24;13.48;;;3.40;;
21822;SDS011;11074;48.596;9.238;2023-01-05T15:45:50;11.80;;;3.70;;
21822;SDS011;11074;48.596;9.238;2023-01-05T15:48:27;11.23;;;3.75;;
21822;SDS011;11074;48.596;9.238;2023-01-05T15:51:08;9.68;;;3.03;;
21822;SDS011;11074;48.596;9.238;2023-01-05T15:53:38;8.10;;;2.83;;
21822;SDS011;11074;48.596;9.238;2023-01-05T15:59:00;14.18;;;7.95;;
21822;SDS011;11074;48.596;9.238;2023-01-05T16:01:41;26.25;;;14.30;;
21822;SDS011;11074;48.596;9.238;2023-01-05T16:04:07;15.57;;;6.60;;
21822;SDS011;11074;48.596;9.238;2023-01-05T16:06:38;12.93;;;4.80;;
21822;SDS011;11074;48.596;9.238;2023-01-05T16:09:08;8.80;;;3.97;;
21822;SDS011;11074;48.596;9.238;2023-01-05T16:12:00;11.75;;;3.20;;
21822;SDS011;11074;48.596;9.238;2023-01-05T16:14:35;12.98;;;5.97;;
21822;SDS011;11074;48.596;9.238;2023-01-05T16:17:12;17.77;;;10.18;;
21822;SDS011;11074;48.596;9.238;2023-01-05T16:19:44;13.52;;;7.20;;
21822;SDS011;11074;48.596;9.238;2023-01-05T16:22:20;8.60;;;5.43;;
21822;SDS011;11074;48.596;9.238;2023-01-05T16:25:20;11.68;;;4.38;;
21822;SDS011;11074;48.596;9.238;2023-01-05T16:27:54;6.75;;;3.50;;
21822;SDS011;11074;48.596;9.238;2023-01-05T16:30:32;7.70;;;3.45;;
21822;SDS011;11074;48.596;9.238;2023-01-05T16:33:05;9.07;;;3.42;;
21822;SDS011;11074;48.596;9.238;2023-01-05T16:35:44;8.05;;;2.65;;
21822;SDS011;11074;48.596;9.238;2023-01-05T16:38:24;8.15;;;2.60;;
21822;SDS011;11074;48.596;9.238;2023-01-05T16:41:07;6.82;;;2.70;;
21822;SDS011;11074;48.596;9.238;2023-01-05T16:43:54;8.85;;;2.55;;
21822;SDS011;11074;48.596;9.238;2023-01-05T16:46:27;8.18;;;3.25;;
21822;SDS011;11074;48.596;9.238;2023-01-05T16:49:05;11.68;;;3.33;;
21822;SDS011;11074;48.596;9.238;2023-01-05T16:51:57;7.47;;;2.40;;
21822;SDS011;11074;48.596;9.238;2023-01-05T16:54:32;9.18;;;2.47;;
21822;SDS011;11074;48.596;9.238;2023-01-05T17:02:50;8.65;;;2.30;;
21822;SDS011;11074;48.596;9.238;2023-01-05T17:05:25;9.52;;;2.60;;
21822;SDS011;11074;48.596;9.238;2023-01-05T17:08:15;9.77;;;3.08;;
21822;SDS011;11074;48.596;9.238;2023-01-05T17:10:48;11.27;;;2.50;;
21822;SDS011;11074;48.596;9.238;2023-01-05T17:13:16;5.55;;;2.30;;
21822;SDS011;11074;48.596;9.238;2023-01-05T17:15:46;7.10;;;2.30;;
21822;SDS011;11074;48.596;9.238;2023-01-05T17:18:24;8.35;;;2.30;;
21822;SDS011;11074;48.596;9.238;2023-01-05T17:20:53;5.90;;;2.17;;
21822;SDS011;11074;48.596;9.238;2023-01-05T17:23:26;9.32;;;2.72;;
21822;SDS011;11074;48.596;9.238;2023-01-05T17:26:02;9.18;;;2.83;;
21822;SDS011;11074;48.596;9.238;2023-01-05T17:28:35;6.13;;;2.30;;
21822;SDS011;11074;48.596;9.238;2023-01-05T17:31:00;8.18;;;2.30;;
21822;SDS011;11074;48.596;9.238;2023-01-05T17:33:26;8.07;;;2.08;;
21822;SDS011;11074;48.596;9.238;2023-01-05T17:35:53;6.93;;;2.50;;
21822;SDS011;11074;48.596;9.238;2023-01-05T17:38:20;6.55;;;2.10;;
21822;SDS011;11074;48.596;9.238;2023-01-05T17:40:45;9.73;;;2.95;;
21822;SDS011;11074;48.596;9.238;2023-01-05T17:43:12;10.10;;;2.42;;
21822;SDS011;11074;48.596;9.238;2023-01-05T17:45:39;5.10;;;2.42;;
21822;SDS011;11074;48.596;9.238;2023-01-05T17:48:10;7.97;;;2.28;;
21822;SDS011;11074;48.596;9.238;2023-01-05T17:50:36;8.70;;;4.20;;
21822;SDS011;11074;48.596;9.238;2023-01-05T17:53:02;13.40;;;5.20;;
21822;SDS011;11074;48.596;9.238;2023-01-05T17:55:29;14.00;;;6.43;;
21822;SDS011;11074;48.596;9.238;2023-01-05T17:57:55;11.32;;;5.30;;
21822;SDS011;11074;48.596;9.238;2023-01-05T18:00:22;10.95;;;5.57;;
21822;SDS011;11074;48.596;9.238;2023-01-05T18:02:51;12.93;;;5.68;;